Jamestown, Kansas
Current Conditions -  °F | °C
As of 12:12 AM on Friday 19 Dec 2014 (Local Time) from KCNK Reporting Station
Overcast Overcast  
Wind Chill: 23°   Ceiling: 900
Heat Index: 28°   Visibility: 7mi
Dew Point: 27°   Wind: 5mph
Humidity: 96%   Direction: 220°SW
Pressure: 30.24"   Gusts: NA
Location:  39.6°N, 97.86°W
Report Text: KCNK 190612Z AUTO 22004KT 7SM BKN009 OVC024 M02/M03 A3024 RMK AO2 T10221028
Loading
Personal Weather Stations






























Interactive Weather Map New forecast layout! Learn more

10-Day Weather Forecast

Advertisements
Track Severe Weather on mobile